Weather at Workman Airpark

Public forecast

Using degrees Fahrenheit for public forecast. Weather courtesy of forecast.io.

Closest aviation weather report (METAR) to Workman Airpark

Closest report is Aurora State Airport, 4.9 nm (9.0 km) WNW. Retrieved 2021/10/23 19:53 UTC (53 minutes ago):

KUAO 231953Z 15006KT 3SM BR OVC007 11/11 A2973 RMK AO2 RAE17B26E52 CIG 004V010 SLP066 P0002 T01110111

Closest aviation forecast (TAF) to Workman Airpark

Closest forecast is Aurora State Airport, 4.9 nm (9.0 km) WNW. Retrieved 2021/10/23 18:42 UTC (2 hours ago):

TAF KUAO 231742Z 2318/2418 07003KT P6SM -RA SCT030 OVC045 TEMPO 2319/2321 6SM -RA BKN025 OVC035 FM232100 19008KT P6SM VCSH SCT025 BKN045 BKN070 FM240000 18004KT P6SM SCT050 BKN120 FM240600 04005KT P6SM SCT100 BKN140 FM241000 12007KT P6SM -RA OVC060 FM241400 11011KT P6SM -RA OVC050